Time;durP1;ratioP1;P1;durP2;ratioP2;P2;SDS_P1;SDS_P2;PMS_P1;PMS_P2;Temp;Humidity;BMP_temperature;BMP_pressure;BME280_temperature;BME280_humidity;BME280_pressure;Samples;Min_cycle;Max_cycle;Signal;HPM_P1;HPM_P2
2022/05/18 00:00:53;;;;;;;6.12;2.47;;;;;;;11.74;100.00;100344.34;1659656;86;21027;-86
2022/05/18 00:03:27;;;;;;;10.80;2.60;;;;;;;11.77;100.00;100358.64;1625855;88;21133;-86
2022/05/18 00:05:53;;;;;;;7.33;2.12;;;;;;;11.79;100.00;100355.65;1625711;88;21035;-83
2022/05/18 00:08:19;;;;;;;11.08;2.75;;;;;;;11.83;100.00;100354.05;1625725;86;21046;-87
2022/05/18 00:10:49;;;;;;;5.25;2.12;;;;;;;11.87;100.00;100351.08;1625869;88;21211;-87
2022/05/18 00:13:15;;;;;;;11.70;2.55;;;;;;;11.88;100.00;100351.88;1625947;88;20970;-87
2022/05/18 00:15:44;;;;;;;7.50;2.10;;;;;;;11.91;100.00;100347.28;1625808;88;21058;-85
2022/05/18 00:18:10;;;;;;;9.28;2.20;;;;;;;11.93;100.00;100354.03;1626098;88;21609;-87
2022/05/18 00:20:36;;;;;;;4.40;1.85;;;;;;;11.95;100.00;100349.72;1625637;88;21459;-85
2022/05/18 00:23:05;;;;;;;6.28;2.12;;;;;;;11.95;100.00;100345.67;1625812;88;21388;-86
2022/05/18 00:25:36;;;;;;;4.35;2.00;;;;;;;11.96;100.00;100349.43;1625857;88;20991;-87
2022/05/18 00:28:03;;;;;;;8.80;1.95;;;;;;;11.96;100.00;100352.13;1608320;89;21038;-85
2022/05/18 00:30:30;;;;;;;3.40;1.70;;;;;;;11.97;100.00;100347.53;1608274;89;20982;-87
2022/05/18 00:33:03;;;;;;;5.67;1.80;;;;;;;11.97;100.00;100348.36;1608570;89;21545;-86
2022/05/18 00:35:25;;;;;;;4.00;1.45;;;;;;;11.99;100.00;100350.78;1604725;89;21066;-86
2022/05/18 00:37:52;;;;;;;9.38;2.17;;;;;;;12.01;100.00;100344.56;1602888;88;38271;-85
2022/05/18 00:40:20;;;;;;;8.18;1.60;;;;;;;12.02;98.27;100345.63;1608102;89;20949;-87
2022/05/18 00:42:46;;;;;;;5.62;1.70;;;;;;;12.02;97.34;100348.33;1608157;89;21132;-86
2022/05/18 00:45:13;;;;;;;9.65;2.15;;;;;;;12.03;98.40;100349.16;1608148;89;21072;-86
2022/05/18 00:47:39;;;;;;;3.33;1.30;;;;;;;12.02;95.86;100357.78;1608507;89;21105;-85
2022/05/18 00:50:33;;;;;;;6.35;1.72;;;;;;;12.04;95.50;100353.47;1607942;89;20894;-87
2022/05/18 00:53:07;;;;;;;5.87;1.37;;;;;;;12.04;93.24;100338.61;1608379;89;21485;-86
2022/05/18 00:55:40;;;;;;;4.62;1.52;;;;;;;12.04;92.28;100340.77;1523631;93;21148;-86
2022/05/18 00:58:20;;;;;;;3.45;1.40;;;;;;;12.05;90.56;100333.47;1523856;94;21157;-88
2022/05/18 01:00:50;;;;;;;4.60;1.60;;;;;;;12.04;91.41;100342.12;1530253;93;21115;-86
2022/05/18 01:03:24;;;;;;;3.72;1.30;;;;;;;12.04;91.30;100344.02;1531488;93;21045;-87
2022/05/18 01:05:58;;;;;;;3.98;1.25;;;;;;;12.04;91.74;100354.27;1531613;93;21112;-85
2022/05/18 01:08:35;;;;;;;3.10;1.57;;;;;;;12.08;91.50;100353.17;1526444;93;21125;-84
2022/05/18 01:11:01;;;;;;;3.75;1.40;;;;;;;12.08;90.81;100348.31;1530273;93;21087;-85
2022/05/18 01:13:27;;;;;;;6.80;1.80;;;;;;;12.06;89.75;100343.20;1531736;93;21115;-84
2022/05/18 01:15:53;;;;;;;4.03;1.32;;;;;;;12.06;90.02;100347.26;1530996;93;21386;-84
2022/05/18 01:18:20;;;;;;;1.82;0.90;;;;;;;12.04;88.40;100344.02;1531474;93;21126;-86
2022/05/18 01:20:46;;;;;;;3.27;1.30;;;;;;;12.03;87.35;100341.05;1531351;93;21124;-84
2022/05/18 01:23:24;;;;;;;3.42;1.35;;;;;;;12.03;86.19;100346.45;1531492;93;21110;-86
2022/05/18 01:26:08;;;;;;;5.05;1.20;;;;;;;12.04;86.09;100341.31;1573618;90;22024;-85
2022/05/18 01:28:37;;;;;;;;;;;;;;;12.05;86.53;100336.97;1582028;89;21613;-86
2022/05/18 01:31:04;;;;;;;4.42;1.30;;;;;;;12.03;84.87;100341.86;1579725;90;20149;-86
2022/05/18 01:33:32;;;;;;;4.45;1.22;;;;;;;12.02;85.62;100336.72;1579309;90;21006;-85
2022/05/18 01:35:59;;;;;;;3.17;1.40;;;;;;;12.02;84.27;100336.72;1579607;90;21133;-85
2022/05/18 01:38:25;;;;;;;4.17;1.42;;;;;;;12.01;83.71;100342.67;1579618;90;21905;-84
2022/05/18 01:41:12;;;;;;;2.37;1.42;;;;;;;12.02;84.49;100340.77;1579292;89;21002;-85
2022/05/18 01:43:46;;;;;;;4.87;1.30;;;;;;;12.05;84.10;100345.07;1567316;90;21073;-85
2022/05/18 01:46:15;;;;;;;3.17;1.02;;;;;;;12.06;82.80;100339.16;1570078;90;21135;-86
2022/05/18 01:48:46;;;;;;;4.60;1.65;;;;;;;12.07;83.20;100344.01;1570305;90;20999;-84
2022/05/18 01:51:20;;;;;;;4.78;1.30;;;;;;;12.08;81.96;100351.82;1569844;90;21990;-85
2022/05/18 01:53:45;;;;;;;4.47;1.10;;;;;;;12.08;81.52;100350.47;1631118;87;21031;-84
2022/05/18 01:56:11;;;;;;;3.00;1.20;;;;;;;12.09;81.52;100357.51;1637701;87;20911;-86
2022/05/18 01:58:37;;;;;;;7.47;1.22;;;;;;;12.09;81.00;100360.21;1611553;87;20976;-85
2022/05/18 02:01:03;;;;;;;7.92;1.60;;;;;;;12.10;81.37;100355.06;1637781;87;20943;-84
2022/05/18 02:03:30;;;;;;;4.30;1.37;;;;;;;12.10;80.86;100362.36;1637743;87;21120;-86
2022/05/18 02:05:56;;;;;;;4.97;1.32;;;;;;;12.10;81.11;100355.61;1637595;87;20963;-85
2022/05/18 02:08:22;;;;;;;5.80;1.20;;;;;;;12.09;80.83;100357.51;1637789;87;20995;-85
2022/05/18 02:10:49;;;;;;;6.12;1.30;;;;;;;12.09;79.78;100358.02;1637756;87;21530;-86
2022/05/18 02:13:16;;;;;;;3.50;1.20;;;;;;;12.09;80.98;100362.08;1637801;87;21062;-86
2022/05/18 02:15:42;;;;;;;5.83;1.40;;;;;;;12.10;80.22;100355.61;1637757;87;21105;-86
2022/05/18 02:18:09;;;;;;;6.62;2.62;;;;;;;12.10;80.27;100359.66;1637579;87;21069;-87
2022/05/18 02:20:35;;;;;;;3.58;1.32;;;;;;;12.09;79.73;100351.27;1637563;87;21035;-86
2022/05/18 02:23:02;;;;;;;4.42;1.75;;;;;;;12.10;80.04;100355.06;1637817;87;21527;-86
2022/05/18 02:25:29;;;;;;;7.47;1.55;;;;;;;12.13;80.39;100357.76;1637773;87;21046;-85
2022/05/18 02:27:55;;;;;;;7.22;1.90;;;;;;;12.14;80.51;100356.67;1637825;87;21855;-87
2022/05/18 02:30:22;;;;;;;5.40;1.40;;;;;;;12.14;81.35;100349.91;1637745;87;21026;-85
2022/05/18 02:32:48;;;;;;;4.17;1.52;;;;;;;12.15;80.45;100344.25;1637613;87;21111;-85
2022/05/18 02:35:14;;;;;;;4.37;1.60;;;;;;;12.16;81.10;100357.20;1637871;87;21141;-86
2022/05/18 02:37:40;;;;;;;6.00;2.00;;;;;;;12.18;82.13;100353.70;1637790;87;21075;-85
2022/05/18 02:40:09;;;;;;;7.65;2.50;;;;;;;12.20;82.10;100358.26;1637810;87;21089;-87
2022/05/18 02:42:35;;;;;;;7.30;2.70;;;;;;;12.20;82.58;100362.31;1650190;86;21015;-86
2022/05/18 02:45:03;;;;;;;8.30;1.60;;;;;;;12.23;83.17;100367.97;1659901;86;21059;-86
2022/05/18 02:47:29;;;;;;;6.33;1.30;;;;;;;12.24;83.82;100365.55;1659553;86;21023;-86
2022/05/18 02:49:55;;;;;;;5.65;1.60;;;;;;;12.25;83.75;100363.11;1659938;86;21689;-86
2022/05/18 02:52:21;;;;;;;3.05;1.37;;;;;;;12.25;83.56;100359.05;1659847;86;21110;-86
2022/05/18 02:57:31;;;;;;;3.50;1.30;;;;;;;12.27;83.24;100366.34;1659361;86;21060;-87
2022/05/18 02:59:58;;;;;;;4.30;1.35;;;;;;;12.24;82.28;100361.50;1659609;86;21055;-87
2022/05/18 03:02:24;;;;;;;3.37;1.02;;;;;;;12.25;83.56;100360.41;1659708;86;21074;-86
2022/05/18 03:04:50;;;;;;;8.05;1.25;;;;;;;12.25;83.40;100364.45;1659953;86;21060;-87
2022/05/18 03:07:16;;;;;;;5.05;1.32;;;;;;;12.28;82.79;100367.95;1659797;86;20983;-88
2022/05/18 03:09:42;;;;;;;3.98;1.17;;;;;;;12.31;85.11;100375.25;1659700;86;21028;-87
2022/05/18 03:12:09;;;;;;;4.47;0.88;;;;;;;12.35;86.71;100382.51;1640936;86;21020;-87
2022/05/18 03:14:35;;;;;;;1.75;1.02;;;;;;;12.38;87.01;100383.34;1659607;86;21036;-87
2022/05/18 03:17:02;;;;;;;2.62;0.98;;;;;;;12.35;84.74;100374.95;1659984;86;21591;-87
2022/05/18 03:19:28;;;;;;;3.52;1.10;;;;;;;12.32;85.42;100383.06;1659757;86;21572;-87
2022/05/18 03:24:38;;;;;;;4.80;1.32;;;;;;;12.28;86.32;100388.22;1624917;86;21068;-86
2022/05/18 03:27:04;;;;;;;2.72;1.10;;;;;;;12.26;87.02;100390.92;1659835;86;20995;-86
2022/05/18 03:29:30;;;;;;;2.15;1.27;;;;;;;12.25;86.40;100390.13;1660208;86;21127;-86
2022/05/18 03:31:56;;;;;;;9.03;1.00;;;;;;;12.25;85.30;100389.31;1659919;86;21004;-87
2022/05/18 03:34:23;;;;;;;4.00;1.45;;;;;;;12.25;84.95;100392.02;1640865;86;20888;-86
2022/05/18 03:36:49;;;;;;;2.77;1.10;;;;;;;12.22;84.10;100397.98;1659585;86;21059;-86
2022/05/18 03:39:16;;;;;;;5.62;1.65;;;;;;;12.21;84.28;100399.87;1659814;86;21555;-85
2022/05/18 03:41:43;;;;;;;2.80;1.35;;;;;;;12.22;85.33;100403.37;1659433;86;21183;-86
2022/05/18 03:44:09;;;;;;;5.97;1.27;;;;;;;12.23;85.27;100404.44;1659686;86;21007;-87
2022/05/18 03:46:35;;;;;;;3.08;1.47;;;;;;;12.21;84.76;100401.23;1659953;86;20999;-85
2022/05/18 03:49:01;;;;;;;4.72;1.20;;;;;;;12.23;85.07;100404.44;1659731;86;21056;-86
2022/05/18 03:51:27;;;;;;;3.50;1.75;;;;;;;12.23;83.71;100401.73;1659991;86;21647;-86
2022/05/18 03:53:54;;;;;;;10.72;2.30;;;;;;;12.25;83.13;100403.63;1659802;86;21084;-85
2022/05/18 03:56:20;;;;;;;8.40;1.67;;;;;;;12.27;82.94;100402.83;1659688;86;21043;-86
2022/05/18 03:58:46;;;;;;;4.10;1.50;;;;;;;12.30;83.57;100406.07;1659745;86;21075;-87
2022/05/18 04:01:13;;;;;;;4.80;1.60;;;;;;;12.31;84.02;100411.18;1640761;86;21083;-85
2022/05/18 04:03:43;;;;;;;4.45;1.80;;;;;;;12.31;83.77;100407.67;1635640;86;21008;-85
2022/05/18 04:06:09;;;;;;;10.15;2.83;;;;;;;12.31;82.69;100406.33;1582477;90;21523;-86
2022/05/18 04:08:36;;;;;;;7.97;1.98;;;;;;;12.30;82.15;100412.27;1582426;90;21079;-86
2022/05/18 04:11:05;;;;;;;7.80;1.85;;;;;;;12.33;84.10;100423.08;1582482;90;21128;-86
2022/05/18 04:13:32;;;;;;;3.75;1.82;;;;;;;12.33;83.52;100421.18;1578696;90;21046;-85
2022/05/18 04:15:58;;;;;;;3.00;1.50;;;;;;;12.36;83.35;100427.93;1582347;90;21628;-87
2022/05/18 04:18:25;;;;;;;7.90;1.60;;;;;;;12.38;84.20;100436.03;1582541;90;21163;-87
2022/05/18 04:20:53;;;;;;;3.65;1.32;;;;;;;12.44;87.33;100438.98;1582517;90;21084;-86
2022/05/18 04:23:20;;;;;;;6.80;1.45;;;;;;;12.48;87.01;100442.73;1582289;90;21086;-86
2022/05/18 04:25:47;;;;;;;6.17;1.37;;;;;;;12.52;91.34;100442.98;1582478;90;21615;-87
2022/05/18 04:28:14;;;;;;;8.35;1.67;;;;;;;12.56;91.46;100448.13;1582795;90;21542;-87
2022/05/18 04:30:45;;;;;;;3.98;1.22;;;;;;;12.59;95.31;100452.14;1582260;90;21338;-87
2022/05/18 04:33:18;;;;;;;3.50;1.50;;;;;;;12.61;96.33;100448.09;1582656;90;21118;-86
2022/05/18 04:35:44;;;;;;;4.42;1.50;;;;;;;12.63;98.65;100464.05;1571473;91;21554;-87
2022/05/18 04:38:11;;;;;;;8.35;1.50;;;;;;;12.64;100.00;100471.06;1574846;91;21117;-87
2022/05/18 04:40:37;;;;;;;8.75;2.42;;;;;;;12.63;99.66;100475.66;1574615;91;21056;-86
2022/05/18 04:43:03;;;;;;;10.28;1.65;;;;;;;12.65;100.00;100479.45;1578005;90;22046;-87
2022/05/18 04:45:29;;;;;;;7.97;1.57;;;;;;;12.67;100.00;100484.83;1581543;90;21062;-87
2022/05/18 04:47:55;;;;;;;8.78;1.70;;;;;;;12.72;100.00;100484.81;1581587;90;20973;-86
2022/05/18 04:50:22;;;;;;;5.58;1.70;;;;;;;12.73;100.00;100489.67;1581477;90;20940;-86
2022/05/18 04:52:48;;;;;;;6.62;1.70;;;;;;;12.75;100.00;100493.47;1581518;90;21057;-87
2022/05/18 04:55:15;;;;;;;7.30;1.72;;;;;;;12.79;100.00;100490.47;1581629;90;21137;-86
2022/05/18 04:57:42;;;;;;;9.48;1.77;;;;;;;12.83;100.00;100488.30;1581466;90;21521;-87
2022/05/18 05:00:13;;;;;;;9.55;1.52;;;;;;;12.91;100.00;100481.48;1581600;90;21200;-87
2022/05/18 05:02:40;;;;;;;10.10;1.70;;;;;;;13.01;100.00;100488.20;1600321;87;21068;-87
2022/05/18 05:05:10;;;;;;;8.93;1.32;;;;;;;13.06;100.00;100483.30;1635505;87;21043;-87
2022/05/18 05:07:37;;;;;;;5.95;1.50;;;;;;;13.12;100.00;100478.95;1635548;87;21905;-86
2022/05/18 05:10:04;;;;;;;6.42;1.67;;;;;;;13.19;100.00;100475.38;1613796;87;20988;-86
2022/05/18 05:12:30;;;;;;;9.88;1.40;;;;;;;13.34;100.00;100477.77;1635580;87;21048;-87
2022/05/18 05:14:56;;;;;;;7.22;1.62;;;;;;;13.48;100.00;100482.01;1635555;87;20909;-88
2022/05/18 05:17:22;;;;;;;7.55;1.55;;;;;;;13.64;100.00;100482.94;1635468;87;21027;-87
2022/05/18 05:19:48;;;;;;;9.18;1.50;;;;;;;13.79;100.00;100477.94;1635449;87;21134;-87
2022/05/18 05:22:14;;;;;;;5.60;1.80;;;;;;;13.99;100.00;100474.25;1635500;87;20987;-87
2022/05/18 05:24:40;;;;;;;5.83;1.50;;;;;;;14.18;100.00;100482.48;1635518;87;21032;-87
2022/05/18 05:27:06;;;;;;;7.12;1.60;;;;;;;14.33;100.00;100480.16;1635577;87;21063;-86
2022/05/18 05:29:32;;;;;;;2.75;1.30;;;;;;;14.45;96.91;100478.41;1635595;87;21449;-85
2022/05/18 05:32:07;;;;;;;4.95;1.60;;;;;;;14.59;96.24;100477.17;1644965;85;21154;-85
2022/05/18 05:34:35;;;;;;;4.87;1.40;;;;;;;14.77;91.05;100472.36;1669607;85;21480;-86
2022/05/18 05:37:01;;;;;;;9.00;1.55;;;;;;;14.86;89.47;100475.23;1672071;85;20971;-86
2022/05/18 05:39:27;;;;;;;4.58;1.60;;;;;;;14.94;86.91;100472.69;1624867;85;21034;-86
2022/05/18 05:41:53;;;;;;;5.95;1.35;;;;;;;14.98;82.93;100483.20;1671912;85;21168;-87
2022/05/18 05:44:20;;;;;;;4.85;1.70;;;;;;;15.03;85.25;100482.34;1667395;85;21207;-86
2022/05/18 05:46:46;;;;;;;5.78;1.35;;;;;;;15.15;81.81;100477.83;1667244;86;21512;-86
2022/05/18 05:49:12;;;;;;;3.40;1.50;;;;;;;15.27;80.08;100477.39;1667508;86;21031;-85
2022/05/18 05:51:38;;;;;;;8.18;1.65;;;;;;;15.32;79.02;100471.31;1667515;86;21024;-86
2022/05/18 05:54:05;;;;;;;4.90;1.72;;;;;;;15.47;76.34;100477.09;1667456;86;21263;-85
2022/05/18 05:56:31;;;;;;;6.33;1.55;;;;;;;15.47;76.34;100477.09;1667409;86;21120;-86
2022/05/18 05:58:58;;;;;;;2.37;1.20;;;;;;;15.56;76.12;100479.91;1667668;86;21040;-87
2022/05/18 06:01:24;;;;;;;3.95;1.47;;;;;;;15.69;74.18;100488.71;1667443;86;21078;-86
2022/05/18 06:03:50;;;;;;;3.70;1.30;;;;;;;15.83;73.04;100485.48;1667705;86;20979;-86
2022/05/18 06:06:19;;;;;;;4.40;1.55;;;;;;;16.07;72.35;100485.91;1667626;86;21058;-87
2022/05/18 06:08:45;;;;;;;5.58;1.77;;;;;;;16.26;70.93;100489.89;1667254;86;23040;-87
2022/05/18 06:11:11;;;;;;;6.40;1.80;;;;;;;16.34;70.41;100487.84;1667726;86;20963;-87
2022/05/18 06:13:38;;;;;;;5.40;1.77;;;;;;;16.40;69.80;100494.80;1667750;86;21043;-86
2022/05/18 06:16:09;;;;;;;6.87;1.80;;;;;;;16.49;70.86;100498.42;1667934;86;21054;-87
2022/05/18 06:18:38;;;;;;;4.83;1.55;;;;;;;16.66;67.78;100491.59;1667384;86;21039;-85
2022/05/18 06:21:05;;;;;;;3.85;1.65;;;;;;;16.58;65.85;100499.34;1667348;86;21320;-86
2022/05/18 06:23:31;;;;;;;3.95;1.40;;;;;;;16.69;65.70;100497.23;1667444;86;21043;-84
2022/05/18 06:26:03;;;;;;;5.83;1.40;;;;;;;16.84;65.53;100496.70;1667629;86;21027;-89
2022/05/18 06:28:29;;;;;;;7.28;1.25;;;;;;;17.06;64.07;100495.95;1667539;86;21074;-86
2022/05/18 06:30:56;;;;;;;4.30;1.22;;;;;;;17.22;63.67;100499.95;1642610;86;21019;-85
2022/05/18 06:33:22;;;;;;;6.20;1.42;;;;;;;17.31;62.78;100496.75;1667708;86;21301;-86
2022/05/18 06:35:51;;;;;;;2.27;1.25;;;;;;;17.56;62.44;100495.90;1667347;86;21095;-87
2022/05/18 06:38:16;;;;;;;5.75;1.37;;;;;;;17.84;60.83;100497.98;1666975;86;21023;-87
2022/05/18 06:43:27;;;;;;;2.27;1.50;;;;;;;18.35;58.66;100503.47;1667238;86;21094;-86
2022/05/18 06:45:53;;;;;;;4.90;1.40;;;;;;;18.64;58.18;100503.52;1667609;86;21914;-88
2022/05/18 06:48:19;;;;;;;5.08;1.40;;;;;;;19.03;57.96;100503.50;1667385;86;21527;-87
2022/05/18 06:50:45;;;;;;;3.60;1.00;;;;;;;19.28;56.01;100503.27;1667603;86;21517;-88
2022/05/18 06:53:12;;;;;;;7.47;1.60;;;;;;;19.58;54.46;100501.27;1667397;86;21050;-84
2022/05/18 06:55:38;;;;;;;4.10;1.42;;;;;;;19.80;52.92;100498.95;1667613;86;21566;-87
2022/05/18 06:58:04;;;;;;;1.98;1.17;;;;;;;19.99;52.80;100506.79;1667598;86;21086;-86
2022/05/18 07:00:30;;;;;;;3.27;1.37;;;;;;;20.39;52.93;100505.38;1667757;86;20995;-87
2022/05/18 07:02:56;;;;;;;3.60;1.30;;;;;;;20.22;48.89;100509.55;1667493;86;21007;-91
2022/05/18 07:05:23;;;;;;;5.85;1.10;;;;;;;19.91;48.14;100501.03;1667488;86;20955;-87
2022/05/18 07:07:49;;;;;;;7.70;1.37;;;;;;;20.10;48.60;100503.95;1667449;86;21046;-90
2022/05/18 07:10:15;;;;;;;3.67;1.72;;;;;;;20.59;48.79;100505.25;1667554;86;21305;-88
2022/05/18 07:12:41;;;;;;;3.70;1.67;;;;;;;21.06;47.88;100502.95;1642464;86;20952;-87
2022/05/18 07:15:09;;;;;;;5.53;1.20;;;;;;;21.53;47.38;100502.24;1667483;86;21035;-91
2022/05/18 07:17:35;;;;;;;4.58;1.37;;;;;;;21.52;45.61;100496.50;1667471;86;21179;-91
2022/05/18 07:20:04;;;;;;;5.20;1.35;;;;;;;22.02;45.57;100504.91;1667621;86;21038;-91
2022/05/18 07:22:29;;;;;;;4.05;1.37;;;;;;;22.61;45.65;100506.73;1667257;86;21496;-94
2022/05/18 07:24:56;;;;;;;6.97;1.70;;;;;;;22.98;43.71;100504.58;1667575;86;21293;-89
2022/05/18 07:27:22;;;;;;;3.65;1.60;;;;;;;23.49;43.36;100509.03;1667594;86;21052;-89
2022/05/18 07:29:48;;;;;;;6.45;1.50;;;;;;;24.11;42.92;100512.32;1667692;86;21011;-90
2022/05/18 07:32:16;;;;;;;2.33;1.32;;;;;;;24.12;40.52;100511.16;1667571;86;21067;-89
2022/05/18 07:34:44;;;;;;;4.47;1.40;;;;;;;24.12;39.70;100504.27;1667204;86;21124;-89
2022/05/18 07:37:12;;;;;;;3.10;1.40;;;;;;;24.47;40.13;100505.23;1667417;86;21031;-90
2022/05/18 07:39:39;;;;;;;3.45;1.45;;;;;;;24.95;38.91;100495.51;1667518;86;21019;-90
2022/05/18 07:42:07;;;;;;;3.42;1.17;;;;;;;25.23;38.66;100491.20;1667455;86;21583;-87
2022/05/18 07:44:34;;;;;;;8.95;1.22;;;;;;;25.41;37.30;100501.82;1661471;86;20969;-86
2022/05/18 07:47:02;;;;;;;2.52;1.30;;;;;;;25.42;35.72;100500.09;1659874;86;21099;-88
2022/05/18 07:49:31;;;;;;;7.92;1.30;;;;;;;25.10;35.33;100500.17;1640573;86;21055;-87
2022/05/18 07:51:57;;;;;;;8.95;1.05;;;;;;;24.77;34.76;100506.13;1656944;86;21068;-86
2022/05/18 07:54:23;;;;;;;4.12;1.20;;;;;;;24.25;34.42;100505.22;1659964;86;21064;-86
2022/05/18 07:56:49;;;;;;;7.45;1.20;;;;;;;23.84;34.57;100502.38;1660134;86;21007;-87
2022/05/18 07:59:15;;;;;;;6.80;1.25;;;;;;;23.77;34.67;100507.70;1659906;86;21532;-88
2022/05/18 08:01:42;;;;;;;8.30;1.00;;;;;;;23.47;34.24;100501.14;1659993;86;20964;-85
2022/05/18 08:04:08;;;;;;;7.87;1.02;;;;;;;23.50;33.88;100507.31;1659390;86;21567;-87
2022/05/18 08:06:35;;;;;;;3.33;1.10;;;;;;;23.30;32.75;100504.97;1659816;86;20893;-86
2022/05/18 08:09:02;;;;;;;2.90;0.98;;;;;;;23.06;33.30;100498.13;1659844;86;21098;-85
2022/05/18 08:16:57;;;;;;;9.05;1.10;;;;;;;23.21;31.71;100513.14;1659737;86;21000;-86
2022/05/18 08:19:23;;;;;;;3.47;1.20;;;;;;;23.01;30.48;100504.69;1659763;86;21005;-86
2022/05/18 08:21:49;;;;;;;3.60;1.47;;;;;;;22.89;30.77;100501.35;1656593;86;21043;-84
2022/05/18 08:24:16;;;;;;;3.42;1.85;;;;;;;22.78;29.56;100502.16;1659895;86;21100;-86
2022/05/18 08:26:42;;;;;;;4.87;1.45;;;;;;;22.84;29.01;100502.16;1659827;86;20976;-85
2022/05/18 08:29:10;;;;;;;8.50;1.82;;;;;;;23.02;28.91;100496.66;1640439;86;21589;-86
2022/05/18 08:31:36;;;;;;;3.42;1.47;;;;;;;23.33;29.59;100499.35;1659883;86;21020;-83
2022/05/18 08:34:03;;;;;;;2.55;1.17;;;;;;;23.27;29.16;100496.04;1660021;86;21047;-83
2022/05/18 08:36:31;;;;;;;4.37;1.20;;;;;;;23.37;28.58;100497.49;1659855;86;21132;-84
2022/05/18 08:38:58;;;;;;;6.20;1.20;;;;;;;23.61;28.32;100492.47;1659520;86;21015;-88
2022/05/18 08:41:29;;;;;;;4.50;1.60;;;;;;;23.76;28.23;100494.48;1640621;86;22139;-85
2022/05/18 08:44:04;;;;;;;9.65;2.20;;;;;;;23.73;27.55;100484.77;1659396;86;21070;-84
2022/05/18 08:46:52;;;;;;;4.12;2.22;;;;;;;23.79;27.45;100492.98;1659533;86;21079;-84
2022/05/18 08:49:56;;;;;;;7.70;3.45;;;;;;;24.23;28.00;100486.87;1573982;91;22046;-85
2022/05/18 08:52:54;;;;;;;8.30;3.33;;;;;;;25.09;26.93;100486.73;1576851;90;21621;-85
2022/05/18 08:55:56;;;;;;;7.97;3.35;;;;;;;24.95;26.08;100483.69;1576872;90;21014;-86
2022/05/18 08:58:44;;;;;;;12.95;6.62;;;;;;;24.97;25.83;100482.72;1548167;92;21480;-86
2022/05/18 09:01:28;;;;;;;12.07;5.05;;;;;;;24.78;25.08;100474.64;1548769;92;21114;-86
2022/05/18 09:04:08;;;;;;;8.78;4.12;;;;;;;24.59;24.69;100479.53;1548412;92;21389;-83
2022/05/18 09:06:51;;;;;;;7.65;4.20;;;;;;;24.99;25.49;100463.29;1547600;92;21564;-84
2022/05/18 09:12:30;;;;;;;6.10;2.90;;;;;;;26.50;25.14;100455.34;1548554;92;21023;-86
2022/05/18 09:14:56;;;;;;;12.15;3.55;;;;;;;27.08;24.82;100454.16;1548437;92;21736;-86
2022/05/18 09:17:47;;;;;;;10.50;3.40;;;;;;;26.84;24.51;100455.42;1548680;92;21205;-85
2022/05/18 09:20:28;;;;;;;5.80;2.60;;;;;;;27.34;23.81;100454.72;1548675;92;21109;-85
2022/05/18 09:23:22;;;;;;;5.92;2.47;;;;;;;26.41;23.60;100449.22;1544728;92;21058;-85
2022/05/18 09:26:11;;;;;;;6.35;3.12;;;;;;;26.11;23.81;100450.52;1548759;92;21154;-84
2022/05/18 09:29:05;;;;;;;7.55;3.20;;;;;;;25.63;25.05;100445.89;1548468;92;20987;-84
2022/05/18 09:32:02;;;;;;;6.30;3.27;;;;;;;25.86;24.89;100450.69;1548441;92;21147;-87
2022/05/18 09:34:51;;;;;;;9.50;3.10;;;;;;;25.08;24.80;100452.84;1551073;90;21114;-86
2022/05/18 09:37:34;;;;;;;5.53;2.52;;;;;;;25.05;25.99;100454.16;1577006;90;21050;-85
2022/05/18 09:40:23;;;;;;;;;;;;;;;25.88;25.46;100444.98;1578389;91;21054;-84
2022/05/18 09:42:55;;;;;;;7.58;2.92;;;;;;;26.29;24.87;100444.70;1576832;91;20157;-83
2022/05/18 09:45:26;;;;;;;6.03;2.63;;;;;;;26.70;24.83;100439.42;1588733;86;21235;-83
2022/05/18 09:48:12;;;;;;;20.15;3.17;;;;;;;25.97;24.47;100433.70;1664732;86;21566;-85
2022/05/18 09:50:42;;;;;;;5.42;2.05;;;;;;;24.80;25.62;100436.50;1664615;86;21054;-86
2022/05/18 09:53:09;;;;;;;4.87;1.95;;;;;;;24.43;25.88;100444.30;1631307;86;21538;-87
2022/05/18 09:55:35;;;;;;;10.85;2.45;;;;;;;23.82;25.51;100435.86;1665056;86;21010;-84
2022/05/18 09:58:16;;;;;;;6.12;2.02;;;;;;;23.84;25.35;100447.33;1664751;86;21120;-83
2022/05/18 10:00:43;;;;;;;3.40;1.85;;;;;;;24.38;25.73;100445.33;1664290;86;21098;-85
2022/05/18 10:09:14;;;;;;;5.83;1.45;;;;;;;25.06;25.02;100440.02;1641822;86;21047;-87
2022/05/18 10:11:40;;;;;;;4.72;1.60;;;;;;;24.97;25.52;100428.38;1663765;86;21201;-84
2022/05/18 10:14:12;;;;;;;5.97;1.90;;;;;;;25.35;25.49;100432.34;1664821;86;21001;-85
2022/05/18 10:16:47;;;;;;;5.00;1.50;;;;;;;25.26;25.35;100433.14;1665023;86;20991;-84
2022/05/18 10:19:28;;;;;;;6.42;1.52;;;;;;;25.11;25.11;100441.67;1664667;86;21031;-86
2022/05/18 10:22:04;;;;;;;3.90;1.60;;;;;;;24.53;24.95;100448.45;1658488;86;21582;-85
2022/05/18 10:25:07;;;;;;;6.20;1.72;;;;;;;23.98;25.59;100453.20;1665053;86;21091;-86
2022/05/18 10:27:44;;;;;;;5.92;1.75;;;;;;;24.62;25.43;100435.28;1665044;86;21046;-84
2022/05/18 10:30:18;;;;;;;5.05;1.52;;;;;;;25.55;25.19;100428.98;1606126;88;21610;-85
2022/05/18 10:33:20;;;;;;;6.92;1.60;;;;;;;25.49;24.89;100435.38;1606423;89;21081;-84
2022/05/18 10:35:52;;;;;;;2.87;1.55;;;;;;;24.54;24.62;100452.83;1606476;89;21147;-84
2022/05/18 10:38:30;;;;;;;5.62;1.98;;;;;;;23.29;25.19;100443.43;1570230;91;21111;-82
2022/05/18 10:41:07;;;;;;;3.00;1.60;;;;;;;22.67;25.19;100439.42;1546051;92;21134;-84
2022/05/18 10:43:37;;;;;;;8.05;1.60;;;;;;;22.12;26.41;100455.89;1544669;91;21066;-86
2022/05/18 10:46:41;;;;;;;1.70;1.10;;;;;;;21.91;27.12;100444.99;1551727;92;21625;-84
2022/05/18 10:49:30;;;;;;;4.22;1.27;;;;;;;21.96;27.28;100452.19;1548831;92;21101;-86
2022/05/18 10:52:16;;;;;;;4.15;1.60;;;;;;;22.07;27.46;100451.98;1551847;92;21466;-83
2022/05/18 10:55:00;;;;;;;4.42;0.90;;;;;;;22.74;27.75;100448.48;1551683;92;21025;-83
2022/05/18 10:57:31;;;;;;;2.90;1.10;;;;;;;23.16;27.18;100444.63;1551858;92;21081;-84
2022/05/18 11:00:11;;;;;;;3.02;1.12;;;;;;;23.04;26.46;100455.89;1542210;92;21016;-84
2022/05/18 11:02:57;;;;;;;4.28;1.27;;;;;;;22.78;26.48;100454.08;1542406;93;21109;-82
2022/05/18 11:05:46;;;;;;;15.70;1.82;;;;;;;22.57;26.40;100455.59;1537009;92;21111;-83
2022/05/18 11:08:17;;;;;;;2.70;1.10;;;;;;;22.52;26.90;100454.44;1542263;92;21607;-84
2022/05/18 11:10:54;;;;;;;14.38;1.77;;;;;;;22.60;27.09;100457.64;1542399;92;21138;-84
2022/05/18 11:13:46;;;;;;;5.08;1.47;;;;;;;22.56;27.15;100457.54;1536732;92;21103;-83
2022/05/18 11:16:25;;;;;;;2.35;1.02;;;;;;;22.67;27.42;100459.23;1542363;92;21094;-84
2022/05/18 11:19:14;;;;;;;5.95;1.10;;;;;;;23.18;26.77;100448.64;1495090;96;21558;-83
2022/05/18 11:21:54;;;;;;;4.70;0.90;;;;;;;23.87;26.75;100449.38;1490937;94;21128;-84
2022/05/18 11:24:29;;;;;;;2.00;1.10;;;;;;;23.81;26.59;100452.16;1488085;96;21102;-82
2022/05/18 11:27:06;;;;;;;6.12;1.35;;;;;;;23.34;25.91;100454.19;1492470;96;20999;-82
2022/05/18 11:29:58;;;;;;;1.70;0.80;;;;;;;23.30;26.16;100451.92;1490234;95;21122;-83
2022/05/18 11:33:10;;;;;;;2.40;0.98;;;;;;;23.71;26.26;100449.94;1488714;96;21196;-84
2022/05/18 11:36:02;;;;;;;3.02;1.02;;;;;;;24.21;25.81;100450.64;1533320;92;21590;-83
2022/05/18 11:38:57;;;;;;;4.67;1.10;;;;;;;24.93;25.28;100450.95;1543535;92;21140;-84
2022/05/18 11:41:38;;;;;;;5.62;1.20;;;;;;;25.08;25.41;100444.57;1539390;93;21714;-84
2022/05/18 11:44:15;;;;;;;3.52;1.20;;;;;;;24.85;25.18;100448.60;1538427;93;21134;-83
2022/05/18 11:47:20;;;;;;;2.10;0.93;;;;;;;24.81;25.60;100444.98;1531334;93;21124;-83
2022/05/18 11:50:29;;;;;;;3.55;1.32;;;;;;;24.72;25.48;100452.66;1533772;93;21629;-83
2022/05/18 11:53:12;;;;;;;1.70;1.17;;;;;;;24.83;24.96;100455.08;1533796;93;21105;-84
2022/05/18 11:56:08;;;;;;;3.85;1.10;;;;;;;25.15;25.06;100453.63;1533901;93;21135;-85
2022/05/18 11:59:08;;;;;;;3.52;1.10;;;;;;;25.58;24.90;100444.81;1530437;93;21146;-83
2022/05/18 12:01:33;;;;;;;2.27;1.25;;;;;;;25.73;23.92;100448.62;1527708;93;21100;-84
2022/05/18 12:04:26;;;;;;;3.27;1.00;;;;;;;25.49;24.32;100453.31;1526957;93;21103;-84
2022/05/18 12:07:32;;;;;;;2.37;1.20;;;;;;;25.22;24.57;100464.80;1529370;93;21103;-83